NORTHEAST SUFFOLK  -  Winter Weather Advisory Winter Weather Advisory        NORTHERN NASSAU  -  Winter Weather Advisory Winter Weather Advisory        NORTHWEST SUFFOLK  -  Winter Weather Advisory Winter Weather Advisory        SOUTHEAST SUFFOLK  -  Winter Weather Advisory Winter Weather Advisory        SOUTHERN NASSAU  -  Winter Weather Advisory Winter Weather Advisory        SOUTHWEST SUFFOLK  -  Winter Weather Advisory Winter Weather Advisory      

Active alerts

Northern Nassau
  Details for Northern Nassau Winter Weather Advisory
Southern Nassau
  Details for Southern Nassau Winter Weather Advisory
Northwest Suffolk
  Details for Northwest Suffolk Winter Weather Advisory
Southwest Suffolk
  Details for Southwest Suffolk Winter Weather Advisory
Northeast Suffolk
  Details for Northeast Suffolk Winter Weather Advisory
Southeast Suffolk
  Details for Southeast Suffolk Winter Weather Advisory


WXM80 ListenWXM80 Stop

You find our weather info also at:

UK Metoffice

WeatherCloud

Weather Underground

Northeastern Weather Network

AWEKAS

Citizen Weather Observer Program (CWOP)

HAMweather, WeatherForYou, PWS Weather


Weather Underground History page Text

Daily Summary for August 19, 2017 Units:  Metric    English   Both
« Previous Day
Next Day »
Daily Weekly Monthly Yearly Custom
  High: Low: Average:
Temperature: 33.4 °C 22.3 °C 26.7 °C
Dew Point: 25.6 °C 19.7 °C 21.9 °C
Humidity: 98 % 48 % 78 %
Wind Speed: 9.7 km/h 0 km/h 1.6 km/h
Wind Gust: 16.7 km/h - -
Wind:- - WSW
Pressure: 1010 hPa 1005.6 hPa -
Precipitation: 0.25 mm    
Historical Graphs
 
 
Tabular Data for August 19, 2017
Time Temperature Dew Point Pressure Wind Wind Speed Wind Gust Humidity Rainfall Rate (Hourly)
00:00 23.2 °C 22.4 °C 1007 hPa Calm   3.7 km/h 95 % 0 mm
00:05 23.2 °C 22.4 °C 1007.3 hPa Calm   1.6 km/h 95 % 0 mm
00:10 23.2 °C 22.3 °C 1007 hPa SW 2.1 km/h 3.7 km/h 95 % 0 mm
00:15 23.2 °C 22.3 °C 1007 hPa West 6.6 km/h 9.3 km/h 95 % 0 mm
00:21 23.2 °C 22.3 °C 1007 hPa WSW 4.5 km/h 6.4 km/h 95 % 0 mm
00:26 23.1 °C 22.3 °C 1007 hPa SW 4.8 km/h 16.1 km/h 95 % 0 mm
00:31 23.1 °C 22.3 °C 1007 hPa SSW 5.1 km/h 11.1 km/h 95 % 0 mm
00:36 23.1 °C 22.2 °C 1007 hPa SW 4.8 km/h 16.1 km/h 95 % 0 mm
00:41 23.1 °C 22.2 °C 1007 hPa WSW 3.2 km/h 12.9 km/h 95 % 0 mm
00:46 23.1 °C 22.2 °C 1007 hPa WSW 3.2 km/h 9.7 km/h 95 % 0 mm
00:51 23.1 °C 22.2 °C 1006.7 hPa WSW 4.8 km/h 12.9 km/h 95 % 0 mm
00:55 23.1 °C 22.2 °C 1006.7 hPa SW 1.6 km/h 5.6 km/h 95 % 0 mm
01:01 23.1 °C 22.2 °C 1006.7 hPa WSW 5.1 km/h 7.4 km/h 95 % 0 mm
01:06 23.1 °C 22.2 °C 1006.7 hPa West 5.1 km/h 9.3 km/h 95 % 0 mm
01:11 23.1 °C 22.2 °C 1006.3 hPa SSW 2.1 km/h 5.6 km/h 95 % 0 mm
01:16 23.1 °C 22.2 °C 1006.3 hPa SW 1.1 km/h 3.7 km/h 95 % 0 mm
01:21 23.1 °C 22.2 °C 1006 hPa WSW 5 km/h 9.3 km/h 95 % 0 mm
01:26 23.1 °C 22.2 °C 1006 hPa WSW 1 km/h 3.7 km/h 95 % 0 mm
01:31 23.1 °C 22.2 °C 1006 hPa WSW 0.5 km/h 1.9 km/h 95 % 0 mm
01:36 23 °C 22.2 °C 1006 hPa WSW 0.2 km/h 1.9 km/h 95 % 0 mm
01:41 23 °C 22.2 °C 1006 hPa WSW 3.1 km/h 5.6 km/h 95 % 0 mm
01:46 23 °C 22.2 °C 1006 hPa SW 2.7 km/h 4.8 km/h 95 % 0 mm
01:51 23 °C 22.2 °C 1006 hPa SW 3.2 km/h 8 km/h 95 % 0 mm
01:56 22.9 °C 22.1 °C 1006 hPa SSW 3.1 km/h 5.6 km/h 95 % 0 mm
02:01 22.9 °C 22.1 °C 1006 hPa WSW 5.1 km/h 6.4 km/h 95 % 0 mm
02:06 22.9 °C 22.1 °C 1006 hPa Calm   1.9 km/h 95 % 0 mm
02:11 22.9 °C 22.1 °C 1006 hPa SW 1.3 km/h 3.7 km/h 95 % 0 mm
02:16 22.9 °C 22.1 °C 1006 hPa Calm   5.6 km/h 95 % 0 mm
02:21 22.9 °C 22.1 °C 1005.6 hPa SW 0.8 km/h 5.6 km/h 95 % 0 mm
02:26 22.9 °C 22.1 °C 1006 hPa SW 2.4 km/h 5.6 km/h 95 % 0 mm
02:31 22.9 °C 22.1 °C 1006 hPa WSW 0.5 km/h 1.9 km/h 95 % 0 mm
02:36 22.9 °C 22.1 °C 1006 hPa WNW 0.3 km/h 5.6 km/h 95 % 0 mm
02:41 22.9 °C 22.2 °C 1006 hPa Calm   1.9 km/h 96 % 0 mm
02:46 22.9 °C 22.2 °C 1005.6 hPa WSW 0.3 km/h 1.9 km/h 96 % 0 mm
02:51 22.8 °C 22.2 °C 1005.6 hPa WSW 1.6 km/h 3.7 km/h 96 % 0 mm
02:56 22.8 °C 22.2 °C 1005.6 hPa Calm   3.7 km/h 96 % 0 mm
03:01 22.8 °C 22.2 °C 1005.6 hPa Calm   3.7 km/h 96 % 0 mm
03:07 22.8 °C 22.2 °C 1006 hPa Calm   1.9 km/h 96 % 0 mm
03:12 22.9 °C 22.2 °C 1006 hPa SW 0.3 km/h 1.6 km/h 96 % 0 mm
03:17 22.9 °C 22.2 °C 1006 hPa SW 0.3 km/h 3.7 km/h 96 % 0 mm
03:22 22.9 °C 22.2 °C 1006 hPa Calm     96 % 0 mm
03:27 22.9 °C 22.2 °C 1006 hPa Calm     96 % 0 mm
03:32 22.8 °C 22.2 °C 1006 hPa Calm     96 % 0 mm
03:37 22.8 °C 22.2 °C 1006 hPa Calm     96 % 0 mm
03:42 22.8 °C 22.2 °C 1006.3 hPa Calm     96 % 0 mm
03:47 22.8 °C 22.1 °C 1006.3 hPa SW 0.2 km/h   96 % 0 mm
03:52 22.7 °C 22.1 °C 1006.3 hPa Calm     96 % 0 mm
03:57 22.7 °C 22.1 °C 1006.3 hPa SW 0.6 km/h 3.7 km/h 96 % 0 mm
04:02 22.7 °C 22.1 °C 1006 hPa Calm     96 % 0 mm
04:07 22.7 °C 22 °C 1006.3 hPa SW 1.8 km/h 5.6 km/h 96 % 0 mm
04:12 22.7 °C 22 °C 1006.3 hPa Calm     96 % 0 mm
04:17 22.6 °C 21.9 °C 1006.3 hPa Calm     96 % 0 mm
04:22 22.6 °C 21.9 °C 1006.3 hPa Calm     96 % 0 mm
04:27 22.6 °C 21.9 °C 1006.3 hPa Calm     96 % 0 mm
04:32 22.6 °C 21.9 °C 1006.3 hPa Calm     96 % 0 mm
04:37 22.5 °C 21.8 °C 1006.3 hPa Calm     96 % 0 mm
04:42 22.5 °C 21.8 °C 1006.3 hPa Calm     96 % 0 mm
04:47 22.4 °C 21.8 °C 1006.7 hPa Calm     96 % 0 mm
04:52 22.4 °C 21.8 °C 1006.7 hPa Calm     96 % 0 mm
04:57 22.4 °C 21.7 °C 1006.7 hPa Calm     96 % 0 mm
05:02 22.4 °C 21.7 °C 1006.7 hPa Calm     96 % 0 mm
05:07 22.3 °C 21.7 °C 1006.7 hPa Calm     96 % 0 mm
05:12 22.3 °C 21.7 °C 1006.7 hPa SW 0.8 km/h 3.7 km/h 96 % 0 mm
05:17 22.3 °C 21.7 °C 1006.7 hPa Calm   1.9 km/h 96 % 0 mm
05:22 22.3 °C 21.7 °C 1007 hPa Calm   1.9 km/h 96 % 0 mm
05:27 22.3 °C 21.7 °C 1007 hPa WSW 2.4 km/h 5.6 km/h 96 % 0 mm
05:32 22.4 °C 21.7 °C 1007 hPa SW 1.6 km/h 5.6 km/h 96 % 0 mm
05:37 22.4 °C 21.7 °C 1007 hPa SW 1.9 km/h 3.7 km/h 96 % 0 mm
05:43 22.4 °C 21.9 °C 1007 hPa SW 1.3 km/h 4.8 km/h 97 % 0 mm
05:48 22.4 °C 21.9 °C 1007.3 hPa Calm   1.9 km/h 97 % 0 mm
05:53 22.4 °C 21.9 °C 1007.3 hPa WSW 1.1 km/h 5.6 km/h 97 % 0 mm
05:58 22.4 °C 21.9 °C 1007.3 hPa West 0.2 km/h 1.9 km/h 97 % 0 mm
06:03 22.4 °C 21.9 °C 1007.3 hPa Calm     97 % 0 mm
06:08 22.4 °C 21.9 °C 1007.3 hPa Calm     97 % 0 mm
06:13 22.4 °C 21.9 °C 1007.3 hPa SW 2.3 km/h 6.4 km/h 97 % 0 mm
06:18 22.4 °C 21.9 °C 1007.3 hPa SW 0.5 km/h 3.7 km/h 97 % 0 mm
06:23 22.4 °C 21.9 °C 1007.3 hPa SW 0.3 km/h 3.7 km/h 97 % 0 mm
06:28 22.5 °C 22 °C 1007.3 hPa WSW 2.3 km/h 5.6 km/h 97 % 0 mm
06:33 22.5 °C 22 °C 1007.3 hPa Calm     97 % 0 mm
06:38 22.5 °C 22 °C 1007.7 hPa West 1.4 km/h 4.8 km/h 97 % 0 mm
06:43 22.5 °C 22 °C 1007.3 hPa Calm     97 % 0 mm
06:48 22.6 °C 22.1 °C 1007.3 hPa West 1.1 km/h 3.2 km/h 97 % 0 mm
06:53 22.6 °C 22.1 °C 1007.7 hPa Calm     97 % 0 mm
06:58 22.6 °C 22.1 °C 1007.7 hPa WNW 1.9 km/h 3.7 km/h 97 % 0 mm
07:03 22.6 °C 22.1 °C 1007.7 hPa WNW 0.2 km/h 1.9 km/h 97 % 0 mm
07:08 22.7 °C 22.2 °C 1007.7 hPa Calm     97 % 0 mm
07:13 22.7 °C 22.2 °C 1007.7 hPa Calm   1.9 km/h 97 % 0 mm
07:18 22.7 °C 22.2 °C 1007.7 hPa WNW 0.2 km/h 3.7 km/h 97 % 0 mm
07:23 22.7 °C 22.2 °C 1007.7 hPa Calm   5.6 km/h 97 % 0 mm
07:28 22.8 °C 22.3 °C 1007.7 hPa West 1.3 km/h 5.6 km/h 97 % 0 mm
07:33 22.8 °C 22.3 °C 1008 hPa West 0.3 km/h 4.8 km/h 97 % 0 mm
07:38 22.8 °C 22.3 °C 1008 hPa West 1.6 km/h 5.6 km/h 97 % 0 mm
07:43 22.9 °C 22.4 °C 1008 hPa Calm   3.7 km/h 97 % 0 mm
07:48 22.9 °C 22.4 °C 1008 hPa West 1.9 km/h 7.4 km/h 97 % 0 mm
07:53 23 °C 22.5 °C 1008 hPa WNW 1 km/h 5.6 km/h 97 % 0 mm
07:58 23.1 °C 22.6 °C 1008 hPa West 1.3 km/h 3.7 km/h 97 % 0 mm
08:03 23.1 °C 22.6 °C 1008 hPa West 2.1 km/h 5.6 km/h 97 % 0 mm
08:08 23.2 °C 22.8 °C 1008 hPa WNW 2.6 km/h 2.6 km/h 98 % 0 mm
08:13 23.2 °C 22.9 °C 1008.4 hPa WNW 1.1 km/h 5.6 km/h 98 % 0 mm
08:18 23.3 °C 22.9 °C 1008.4 hPa WNW 1.4 km/h 3.7 km/h 98 % 0 mm
08:23 23.3 °C 22.8 °C 1008.4 hPa WNW 2.3 km/h 7.4 km/h 97 % 0 mm
08:28 23.3 °C 22.8 °C 1008.4 hPa WNW 2.6 km/h 3.7 km/h 97 % 0 mm
08:33 23.3 °C 22.8 °C 1008.4 hPa WNW 1.1 km/h 5.6 km/h 97 % 0 mm
08:39 23.3 °C 22.8 °C 1008.4 hPa WSW 1.8 km/h 5.6 km/h 97 % 0 mm
08:44 23.3 °C 22.8 °C 1008.4 hPa West 1.8 km/h 3.7 km/h 97 % 0 mm
08:49 23.4 °C 22.9 °C 1008.7 hPa WSW 2.9 km/h 5.6 km/h 97 % 0 mm
08:54 23.4 °C 22.9 °C 1008.7 hPa Calm     97 % 0 mm
08:59 23.4 °C 22.9 °C 1008.7 hPa WNW 4 km/h 5.6 km/h 97 % 0 mm
09:04 23.5 °C 23 °C 1008.7 hPa West 2.4 km/h 5.6 km/h 97 % 0 mm
09:09 23.6 °C 23.1 °C 1008.7 hPa NNE 2.3 km/h 5.6 km/h 97 % 0 mm
09:14 23.7 °C 23.2 °C 1008.7 hPa WNW 2.9 km/h 5.6 km/h 97 % 0 mm
09:19 23.8 °C 23.1 °C 1008.7 hPa WNW 3.7 km/h 5.6 km/h 96 % 0 mm
09:24 23.9 °C 23.2 °C 1008.7 hPa Calm   1.9 km/h 96 % 0 mm
09:29 24 °C 23.3 °C 1008.7 hPa Calm     96 % 0 mm
09:34 24.1 °C 23.4 °C 1008.7 hPa WNW 0.2 km/h 1.9 km/h 96 % 0 mm
09:39 24.2 °C 23.3 °C 1008.7 hPa WNW 3.1 km/h 5.6 km/h 95 % 0 mm
09:44 24.3 °C 23.4 °C 1008.7 hPa WNW 1.1 km/h 5.6 km/h 95 % 0 mm
09:49 24.4 °C 23.6 °C 1008.7 hPa WNW 2.1 km/h 5.6 km/h 95 % 0 mm
09:54 24.8 °C 23.9 °C 1009 hPa WNW 1.1 km/h 5.6 km/h 95 % 0 mm
09:59 25.1 °C 24.1 °C 1009 hPa SW 3.9 km/h 7.4 km/h 94 % 0 mm
10:00 25.2 °C 23.9 °C 1009 hPa SW 1 km/h 5.6 km/h 93 % 0 mm
10:05 25.5 °C 24.1 °C 1009 hPa WSW 3.1 km/h 5.6 km/h 92 % 0 mm
10:06 25.6 °C 24 °C 1009 hPa West 4.7 km/h 6.4 km/h 91 % 0 mm
10:11 25.9 °C 24.1 °C 1009 hPa NW 4.2 km/h 6.4 km/h 90 % 0 mm
10:16 26.1 °C 23.9 °C 1009 hPa West 1.8 km/h 5.6 km/h 88 % 0 mm
10:17 26.2 °C 24 °C 1009 hPa West 1.3 km/h 3.7 km/h 88 % 0 mm
10:22 26.3 °C 24.2 °C 1009 hPa WSW 1.9 km/h 6.4 km/h 88 % 0 mm
10:27 26.6 °C 24.2 °C 1009 hPa WSW 2.1 km/h 5.6 km/h 87 % 0 mm
10:32 26.8 °C 24.1 °C 1009 hPa West 1.4 km/h 5.6 km/h 85 % 0 mm
10:37 27.1 °C 24.2 °C 1009 hPa SW 5.8 km/h 7.4 km/h 84 % 0 mm
10:42 27.3 °C 24.2 °C 1009 hPa West 0.8 km/h 1.9 km/h 83 % 0 mm
10:47 27.6 °C 24.3 °C 1009 hPa NW 0.3 km/h 3.7 km/h 82 % 0 mm
10:52 27.9 °C 24.3 °C 1009 hPa West 1.6 km/h 5.6 km/h 81 % 0 mm
10:57 28.2 °C 24.4 °C 1009 hPa WNW 1.4 km/h 3.7 km/h 80 % 0 mm
11:02 28.5 °C 24.5 °C 1009 hPa WNW 1.9 km/h 5.6 km/h 79 % 0 mm
11:07 28.7 °C 24.7 °C 1009.4 hPa West 0.2 km/h 3.7 km/h 79 % 0 mm
11:12 29.1 °C 24.4 °C 1009 hPa Calm   1.9 km/h 76 % 0 mm
11:17 29.3 °C 24.9 °C 1009.4 hPa WNW 1.1 km/h 3.2 km/h 77 % 0 mm
11:22 29.6 °C 24.7 °C 1009.4 hPa WNW 1.1 km/h 3.7 km/h 75 % 0 mm
11:27 30 °C 25.5 °C 1009.4 hPa NW 0.3 km/h 1.9 km/h 77 % 0 mm
11:32 30.3 °C 25.6 °C 1009 hPa West 1.1 km/h 5.6 km/h 76 % 0 mm
11:37 30.5 °C 24.4 °C 1009 hPa WNW 3.9 km/h 7.4 km/h 70 % 0 mm
11:42 30.7 °C 24.8 °C 1009 hPa West 1.3 km/h 4.8 km/h 71 % 0 mm
11:47 30.8 °C 24.9 °C 1009 hPa West 1.1 km/h 3.7 km/h 71 % 0 mm
11:52 31 °C 23.7 °C 1009 hPa West 6.1 km/h 11.1 km/h 65 % 0 mm
11:57 31.1 °C 23.2 °C 1009 hPa WSW 6.4 km/h 9.7 km/h 63 % 0 mm
12:02 31.2 °C 22.3 °C 1009 hPa WSW 2.3 km/h 11.1 km/h 59 % 0 mm
12:08 31.3 °C 22.6 °C 1009 hPa West 5.5 km/h 11.1 km/h 60 % 0 mm
12:13 31.4 °C 22.7 °C 1009 hPa NW 1.9 km/h 7.4 km/h 60 % 0 mm
12:18 31.5 °C 22.2 °C 1009 hPa West 5 km/h 7.4 km/h 58 % 0 mm
12:21 31.6 °C 22.6 °C 1009 hPa WNW 6.6 km/h 9.3 km/h 59 % 0 mm
12:26 31.7 °C 22.2 °C 1009 hPa WSW 4.8 km/h 11.3 km/h 57 % 0.25 mm
12:31 31.8 °C 21.9 °C 1009 hPa WSW 3.2 km/h 11.3 km/h 56 % 0 mm
12:36 31.9 °C 20.8 °C 1009 hPa WSW 4.8 km/h 12.9 km/h 52 % 0 mm
12:41 31.9 °C 20.6 °C 1009 hPa WSW 9.7 km/h 16.1 km/h 51 % 0 mm
12:46 32 °C 21.5 °C 1009 hPa WSW 3.2 km/h 9.7 km/h 54 % 0 mm
12:51 32.2 °C 22 °C 1009 hPa WSW 1.6 km/h 8 km/h 55 % 0 mm
12:56 32.3 °C 21.5 °C 1009 hPa West 3.2 km/h 9.7 km/h 53 % 0 mm
13:01 32.3 °C 21.2 °C 1009 hPa WNW 1.9 km/h 16.7 km/h 52 % 0.25 mm
13:06 32.3 °C 20.8 °C 1008.7 hPa WSW 4.2 km/h 9.3 km/h 51 % 0.25 mm
13:11 32.3 °C 22.1 °C 1008.7 hPa WSW 7.2 km/h 11.1 km/h 55 % 0.25 mm
13:16 32.4 °C 22.2 °C 1008.7 hPa SW 7.9 km/h 11.1 km/h 55 % 0.25 mm
13:21 32.5 °C 21.1 °C 1008.7 hPa WSW 9 km/h 14.8 km/h 51 % 0.25 mm
13:26 32.6 °C 21.7 °C 1008.7 hPa West 4.8 km/h 14.8 km/h 53 % 0 mm
13:31 32.6 °C 21.5 °C 1008.7 hPa WNW 3.4 km/h 9.3 km/h 52 % 0 mm
13:36 32.7 °C 21.8 °C 1008.7 hPa West 7.1 km/h 13 km/h 53 % 0 mm
13:41 32.7 °C 21.6 °C 1008.7 hPa WNW 5.3 km/h 9.7 km/h 52 % 0 mm
13:46 32.8 °C 22.8 °C 1008.7 hPa SSW 1.8 km/h 4.8 km/h 56 % 0 mm
13:51 32.8 °C 23.2 °C 1008.7 hPa NNW 0.8 km/h 1.9 km/h 57 % 0 mm
13:56 32.8 °C 22.9 °C 1008.7 hPa North 1.4 km/h 5.6 km/h 56 % 0 mm
14:01 32.9 °C 23 °C 1008.7 hPa West 1.9 km/h 7.4 km/h 56 % 0 mm
14:06 32.8 °C 22.6 °C 1008.4 hPa North 3.1 km/h 5.6 km/h 55 % 0 mm
14:11 32.8 °C 22.6 °C 1008.4 hPa NE 2.6 km/h 6.4 km/h 55 % 0 mm
14:16 32.7 °C 22.5 °C 1008.4 hPa West 3.1 km/h 5.6 km/h 55 % 0 mm
14:21 32.8 °C 22.6 °C 1008.4 hPa WSW 2.1 km/h 5.6 km/h 55 % 0 mm
14:26 32.9 °C 22.1 °C 1008.4 hPa WNW 3.5 km/h 11.1 km/h 53 % 0 mm
14:31 32.9 °C 22.7 °C 1008.4 hPa WNW 0.8 km/h 11.3 km/h 55 % 0 mm
14:36 33 °C 21.8 °C 1008.4 hPa WNW 7.7 km/h 12.9 km/h 52 % 0 mm
14:41 33 °C 22.2 °C 1008.4 hPa NNE 3.5 km/h 6.4 km/h 53 % 0 mm
14:46 33.1 °C 21.6 °C 1008.4 hPa NW 8.7 km/h 11.3 km/h 51 % 0 mm
14:51 33.1 °C 22.5 °C 1008 hPa NW 1.3 km/h 5.6 km/h 54 % 0 mm
14:56 33.1 °C 23.4 °C 1008 hPa West 0.3 km/h 1.9 km/h 57 % 0 mm
15:01 33.2 °C 22.9 °C 1008 hPa NW 1.6 km/h 5.6 km/h 55 % 0 mm
15:06 33.3 °C 22.4 °C 1008 hPa NW 6.1 km/h 9.7 km/h 53 % 0 mm
15:11 33.3 °C 22.1 °C 1008 hPa West 4.3 km/h 7.4 km/h 52 % 0 mm
15:16 33.4 °C 22.2 °C 1008 hPa WSW 4.2 km/h 7.4 km/h 52 % 0 mm
15:21 33.4 °C 21.9 °C 1008 hPa West 3.1 km/h 7.4 km/h 51 % 0 mm
15:27 33.4 °C 22.2 °C 1008 hPa WNW 4.2 km/h 6.4 km/h 52 % 0 mm
15:32 33.3 °C 21.4 °C 1008 hPa NNE 1.8 km/h 5.6 km/h 50 % 0 mm
15:37 32.9 °C 22.4 °C 1008 hPa NW 1.1 km/h 5.6 km/h 54 % 0 mm
15:42 32.8 °C 21.3 °C 1008 hPa WSW 2.4 km/h 5.6 km/h 51 % 0 mm
15:47 32.8 °C 22.6 °C 1008 hPa NW 1.3 km/h 3.7 km/h 55 % 0 mm
15:52 32.9 °C 22.3 °C 1008 hPa WNW 0.2 km/h 1.9 km/h 54 % 0 mm
15:57 32.9 °C 21.2 °C 1008 hPa West 6 km/h 9.3 km/h 50 % 0 mm
16:02 33 °C 21.8 °C 1008 hPa WNW 0.8 km/h 3.2 km/h 52 % 0 mm
16:07 32.9 °C 21.4 °C 1008 hPa West 6.1 km/h 11.1 km/h 51 % 0 mm
16:12 32.9 °C 22.1 °C 1008 hPa West 0.6 km/h 1.9 km/h 53 % 0 mm
16:17 32.9 °C 20.8 °C 1008 hPa West 3.1 km/h 5.6 km/h 49 % 0 mm
16:22 32.9 °C 20.4 °C 1008 hPa WNW 1.8 km/h 3.7 km/h 48 % 0 mm
16:27 32.9 °C 21.4 °C 1008 hPa WSW 0.6 km/h 1.9 km/h 51 % 0 mm
16:32 32.8 °C 21.1 °C 1008 hPa West 3.1 km/h 5.6 km/h 50 % 0 mm
16:37 32.8 °C 20.3 °C 1008 hPa West 4.5 km/h 7.4 km/h 48 % 0 mm
16:42 32.8 °C 20.7 °C 1008 hPa WNW 1.9 km/h 3.7 km/h 49 % 0 mm
16:44 32.7 °C 21.5 °C 1008 hPa NW 0.2 km/h 1.9 km/h 52 % 0 mm
16:49 32.5 °C 21.1 °C 1008 hPa West 3.1 km/h 6.4 km/h 51 % 0 mm
16:55 32.4 °C 20.3 °C 1008 hPa West 4.5 km/h 6.4 km/h 49 % 0 mm
17:00 32.4 °C 20.3 °C 1007.7 hPa West 1.1 km/h 11.1 km/h 49 % 0 mm
17:05 32.3 °C 20.9 °C 1008 hPa Calm   5.6 km/h 51 % 0 mm
17:10 32.3 °C 19.9 °C 1008 hPa WNW 2.6 km/h 9.3 km/h 48 % 0 mm
17:15 32.2 °C 20.4 °C 1008 hPa WNW 2.9 km/h 5.6 km/h 50 % 0 mm
17:20 32.1 °C 20.1 °C 1007.7 hPa Calm     49 % 0 mm
17:25 32.1 °C 20.1 °C 1007.7 hPa SW 2.6 km/h 8 km/h 49 % 0 mm
17:30 32.1 °C 20.3 °C 1007.7 hPa WNW 0.5 km/h 3.7 km/h 50 % 0 mm
17:35 31.9 °C 19.9 °C 1007.7 hPa West 3.4 km/h 5.6 km/h 49 % 0 mm
17:40 31.8 °C 20.1 °C 1007.7 hPa WNW 3.7 km/h 7.4 km/h 50 % 0 mm
17:45 31.7 °C 19.7 °C 1007.7 hPa SW 4.5 km/h 6.4 km/h 49 % 0 mm
17:50 31.6 °C 20.2 °C 1007.7 hPa SSW 1.8 km/h 5.6 km/h 51 % 0 mm
17:55 31.5 °C 19.8 °C 1007.7 hPa SW 0.2 km/h 5.6 km/h 50 % 0 mm
18:00 31.3 °C 19.7 °C 1007.7 hPa WSW 1 km/h 5.6 km/h 50 % 0 mm
18:05 31.2 °C 19.9 °C 1007.7 hPa WSW 4 km/h 7.4 km/h 51 % 0 mm
18:10 31.1 °C 19.8 °C 1007.7 hPa WSW 2.1 km/h 5.6 km/h 51 % 0 mm
18:15 30.9 °C 20.2 °C 1007.7 hPa SW 1.1 km/h 5.6 km/h 53 % 0 mm
18:20 30.8 °C 20.7 °C 1007.7 hPa SW 0.8 km/h 6.4 km/h 55 % 0 mm
18:25 30.7 °C 20.9 °C 1007.7 hPa WSW 0.8 km/h 5.6 km/h 56 % 0 mm
18:31 30.6 °C 20.8 °C 1007.7 hPa Calm   4.8 km/h 56 % 0 mm
18:36 30.4 °C 20.9 °C 1007.7 hPa SW 0.2 km/h 1.9 km/h 57 % 0 mm
18:41 30.3 °C 21.1 °C 1007.7 hPa Calm   3.2 km/h 58 % 0 mm
18:46 30.1 °C 20.9 °C 1007.7 hPa SW 1.6 km/h 9.7 km/h 58 % 0 mm
18:51 29.9 °C 21.1 °C 1007.7 hPa WSW 3.2 km/h 16.1 km/h 59 % 0 mm
18:56 29.8 °C 20.9 °C 1007.7 hPa WSW 1.6 km/h 6.4 km/h 59 % 0 mm
19:01 29.6 °C 20.7 °C 1008 hPa WSW 0.8 km/h 3.7 km/h 59 % 0 mm
19:06 29.4 °C 20.9 °C 1008 hPa Calm   3.7 km/h 60 % 0 mm
19:11 29.3 °C 21 °C 1008 hPa SW 0.5 km/h 1.9 km/h 61 % 0 mm
19:16 29.1 °C 20.8 °C 1008 hPa SW 0.2 km/h 1.6 km/h 61 % 0 mm
19:21 28.9 °C 20.9 °C 1008 hPa Calm     62 % 0 mm
19:26 28.7 °C 20.7 °C 1007.7 hPa Calm     62 % 0 mm
19:31 28.6 °C 20.8 °C 1008 hPa Calm   1.6 km/h 63 % 0 mm
19:36 28.3 °C 20.9 °C 1008 hPa Calm     64 % 0 mm
19:41 28.2 °C 20.7 °C 1008 hPa Calm   1.9 km/h 64 % 0 mm
19:46 28 °C 20.6 °C 1008.4 hPa SW 0.5 km/h 1.9 km/h 64 % 0 mm
19:51 27.8 °C 20.7 °C 1008.4 hPa SW 0.3 km/h 1.9 km/h 65 % 0 mm
19:56 27.6 °C 20.4 °C 1008.4 hPa SW 0.2 km/h 1.9 km/h 65 % 0 mm
20:01 27.4 °C 20.5 °C 1008.4 hPa SW 0.2 km/h 1.9 km/h 66 % 0 mm
20:06 27.3 °C 20.4 °C 1008.4 hPa Calm     66 % 0 mm
20:11 27.1 °C 20.4 °C 1008.4 hPa Calm     67 % 0 mm
20:16 26.9 °C 20.6 °C 1008.4 hPa Calm     68 % 0 mm
20:21 26.8 °C 20.4 °C 1008.7 hPa Calm   1.9 km/h 68 % 0 mm
20:27 26.7 °C 20.5 °C 1008.7 hPa Calm   1.6 km/h 69 % 0 mm
20:32 26.6 °C 20.6 °C 1008.7 hPa Calm     70 % 0 mm
20:37 26.4 °C 20.6 °C 1008.7 hPa Calm   1.9 km/h 70 % 0 mm
20:42 26.3 °C 20.6 °C 1008.7 hPa SW 0.2 km/h   71 % 0 mm
20:47 26.2 °C 20.5 °C 1008.7 hPa Calm     71 % 0 mm
20:52 26.1 °C 20.6 °C 1009 hPa Calm   1.9 km/h 72 % 0 mm
20:57 25.9 °C 20.7 °C 1008.7 hPa SW 0.5 km/h 1.9 km/h 73 % 0 mm
21:02 25.8 °C 20.8 °C 1008.7 hPa Calm   1.9 km/h 74 % 0 mm
21:07 25.7 °C 20.7 °C 1009 hPa Calm   1.9 km/h 74 % 0 mm
21:12 25.6 °C 20.8 °C 1009 hPa Calm     75 % 0 mm
21:17 25.5 °C 20.7 °C 1009 hPa Calm     75 % 0 mm
21:22 25.4 °C 20.8 °C 1009 hPa Calm     76 % 0 mm
21:27 25.3 °C 20.8 °C 1009 hPa Calm   1.9 km/h 76 % 0 mm
21:32 25.2 °C 20.9 °C 1009 hPa Calm     77 % 0 mm
21:37 25.1 °C 20.8 °C 1009.4 hPa Calm   1.9 km/h 77 % 0 mm
21:41 25.1 °C 20.8 °C 1009.4 hPa Calm   1.6 km/h 77 % 0 mm
21:46 25 °C 20.9 °C 1009.4 hPa Calm   1.6 km/h 78 % 0 mm
21:51 24.9 °C 20.8 °C 1009.4 hPa Calm     78 % 0 mm
21:56 24.8 °C 20.7 °C 1009.7 hPa Calm     78 % 0 mm
22:01 24.7 °C 20.8 °C 1009.7 hPa Calm     79 % 0 mm
22:06 24.7 °C 20.8 °C 1009.7 hPa Calm     79 % 0 mm
22:11 24.6 °C 20.7 °C 1009.7 hPa Calm   1.9 km/h 79 % 0 mm
22:16 24.4 °C 20.6 °C 1009.7 hPa Calm     79 % 0 mm
22:21 24.4 °C 20.5 °C 1010 hPa Calm     79 % 0 mm
22:26 24.3 °C 20.7 °C 1009.7 hPa Calm     80 % 0 mm
22:31 24.2 °C 20.6 °C 1009.7 hPa Calm     80 % 0 mm
22:36 24.2 °C 20.7 °C 1010 hPa Calm     81 % 0 mm
22:41 24.1 °C 20.6 °C 1010 hPa Calm     81 % 0 mm
22:46 24 °C 20.6 °C 1010 hPa Calm     81 % 0 mm
22:51 23.9 °C 20.5 °C 1010 hPa Calm     81 % 0 mm
22:56 23.9 °C 20.4 °C 1010 hPa Calm     81 % 0 mm
23:01 23.8 °C 20.6 °C 1010 hPa SW 0.2 km/h 1.6 km/h 82 % 0 mm
23:06 23.8 °C 20.5 °C 1010 hPa Calm     82 % 0 mm
23:12 23.7 °C 20.4 °C 1010 hPa Calm     82 % 0 mm
23:17 23.7 °C 20.6 °C 1010 hPa Calm     83 % 0 mm
23:21 23.6 °C 20.6 °C 1010 hPa Calm     83 % 0 mm
23:23 23.6 °C 20.6 °C 1010 hPa Calm     83 % 0 mm
23:25 23.6 °C 20.6 °C 1010 hPa Calm     83 % 0 mm
23:30 23.6 °C 20.5 °C 1010 hPa Calm     83 % 0 mm
23:35 23.5 °C 20.4 °C 1010 hPa Calm     83 % 0 mm
23:40 23.4 °C 20.2 °C 1010 hPa Calm     82 % 0 mm
23:45 23.4 °C 20.2 °C 1009.7 hPa Calm     82 % 0 mm
23:50 23.4 °C 20.3 °C 1010 hPa Calm     83 % 0 mm
23:55 23.3 °C 20.1 °C 1009.7 hPa Calm     82 % 0 mm
Crab Meadow Weather
Compliments of Weather Underground - 3 mb

Script developed by  Jim McMurry - jmcmurry@mwt.net Adapted for the template by  Wim van der Kuil - Leuven-Template.eu

Weather Terms: Rain/Showers - Rain is a nearly steady and uniform fall of precipitation over an area. Showers are intermittent and/or scattered convective rainfall of varying intensity.